ADDS METAR Data INFO
IDs: Format: Raw Decoded Include TAF

Data at: 2025 UTC 20 Jul 2018

KDED 202015Z AUTO 26005KT 10SM -RA BKN010 BKN016 BKN070 27/25 A2996 RMK AO2 LTG DSNT SE AND S
KDED 201955Z AUTO 21005KT 10SM BKN009 BKN029 27/25 A2997 RMK AO2 LTG DSNT S P0001
KDED 201935Z AUTO 21008KT 10SM BKN009 BKN033 BKN065 27/25 A2997 RMK AO2 LTG DSNT W AND NW P0001
KDED 201915Z AUTO 20006KT 10SM -RA BKN009 BKN039 26/25 A2998 RMK AO2 LTG DSNT SW P0001
KDED 201855Z AUTO 20005KT 10SM SCT007 SCT012 26/25 A2998 RMK AO2 LTG DSNT NE AND NW P0001
KDED 201835Z AUTO 20006KT 10SM -RA SCT007 SCT027 SCT042 25/24 A2998 RMK AO2 LTG DSNT W P0001
KDED 201815Z AUTO 20006KT 10SM -RA SCT030 BKN040 BKN046 25/24 A2999 RMK AO2 LTG DSNT NE AND SW P0001
KDED 201755Z AUTO 19005KT 10SM -RA SCT030 BKN050 OVC060 25/24 A3000 RMK AO2 LTG DSNT W THRU NE P0002
KDED 201735Z AUTO 19005KT 10SM -RA BKN048 BKN060 OVC070 25/23 A3000 RMK AO2 LTG DSNT W THRU NE P0002
KDED 201715Z AUTO 22005KT 10SM -VCTSRA SCT032 BKN050 OVC080 25/23 A3001 RMK AO2 LTG DSNT W THRU E P0001
KDED 201655Z AUTO 22007KT 10SM -VCTSRA SCT030 BKN035 OVC060 24/23 A3000 RMK AO2 LTG DSNT ALQDS P0066
KDED 201635Z AUTO 21007KT 5SM +TSRA BR SCT013 BKN034 OVC060 24/23 A3001 RMK AO2 LTG DSNT ALQDS P0066
KDED 201615Z AUTO 24014G19KT 2 1/2SM +TSRA BR SCT015 SCT022 BKN031 26/24 A3002 RMK AO2 VIS 1 1/2V5 LTG DSNT SE THRU W P0026
KDED 201555Z AUTO 24009KT 10SM SCT031 SCT120 31/23 A2999 RMK AO2 LTG DSNT SE THRU W
KDED 201535Z AUTO 22011KT 10SM BKN024 BKN033 BKN110 30/23 A2999 RMK AO2 LTG DSNT S AND NW
KDED 201515Z AUTO 21010KT 10SM BKN024 OVC031 30/24 A3000 RMK AO2 LTG DSNT S THRU W
KDED 201455Z AUTO 21008KT 10SM SCT024 BKN031 BKN039 30/24 A2999 RMK AO2 LTG DSNT S THRU W
KDED 201435Z AUTO 20008KT 10SM SCT020 SCT027 30/24 A2999 RMK AO2 LTG DSNT S AND SW
KDED 201415Z AUTO 21009KT 10SM BKN020 BKN027 29/24 A3000 RMK AO2
KDED 201355Z AUTO 20009KT 10SM BKN020 29/24 A3000 RMK AO2
KDED 201335Z AUTO 21008KT 10SM BKN018 29/24 A2999 RMK AO2
KDED 201315Z AUTO 20008KT 10SM SCT016 29/25 A2999 RMK AO2 LTG DSNT W
KDED 201255Z AUTO 19008KT 150V210 10SM SCT014 28/25 A2998 RMK AO2 LTG DSNT SW AND W
KDED 201235Z AUTO 20009KT 10SM CLR 28/25 A2998 RMK AO2 LTG DSNT W
KDED 201215Z AUTO 18005KT 10SM CLR 27/25 A2998 RMK AO2 LTG DSNT SW
KDED 201155Z AUTO 18004KT 10SM CLR 26/25 A2997 RMK AO2
KDED 201135Z AUTO 18004KT 10SM CLR 26/25 A2997 RMK AO2
KDED 201115Z AUTO 19005KT 10SM CLR 26/24 A2997 RMK AO2
KDED 201055Z AUTO 19005KT 10SM CLR 25/24 A2996 RMK AO2
KDED 201035Z AUTO 18005KT 10SM CLR 25/24 A2996 RMK AO2
KDED 201015Z AUTO 17004KT 10SM CLR 25/24 A2995 RMK AO2 LTG DSNT W
KDED 200955Z AUTO 17005KT 10SM CLR 25/24 A2995 RMK AO2 LTG DSNT E
KDED 200935Z AUTO 18005KT 10SM CLR 25/24 A2995 RMK AO2
KDED 200915Z AUTO 17003KT 10SM CLR 25/24 A2995 RMK AO2
KDED 200855Z AUTO 17003KT 10SM CLR 25/25 A2995 RMK AO2
KDED 200835Z AUTO 16005KT 10SM CLR 25/25 A2994 RMK AO2
KDED 200815Z AUTO 16004KT 10SM CLR 25/25 A2995 RMK AO2
KDED 200755Z AUTO 17004KT 10SM CLR 25/25 A2995 RMK AO2
KDED 200735Z AUTO 16004KT 10SM CLR 25/25 A2995 RMK AO2
KDED 200715Z AUTO 17003KT 10SM CLR 26/25 A2996 RMK AO2 LTG DSNT E
KDED 200655Z AUTO 17004KT 10SM CLR 26/25 A2996 RMK AO2
KDED 200635Z AUTO 16005KT 10SM CLR 26/24 A2996 RMK AO2 LTG DSNT E
KDED 200615Z AUTO 17003KT 10SM CLR 26/24 A2997 RMK AO2
KDED 200555Z AUTO 16003KT 10SM CLR 26/24 A2997 RMK AO2
KDED 200535Z AUTO 16004KT 10SM CLR 26/24 A2997 RMK AO2
KDED 200515Z AUTO 16004KT 10SM CLR 26/24 A2998 RMK AO2
KDED 200455Z AUTO 17003KT 10SM SCT120 26/24 A2999 RMK AO2
KDED 200435Z AUTO 17004KT 10SM SCT090 BKN120 26/24 A2999 RMK AO2 LTG DSNT E
KDED 200415Z AUTO 14004KT 10SM SCT100 BKN120 27/24 A2999 RMK AO2
KDED 200355Z AUTO 20003KT 10SM SCT060 SCT110 27/24 A2999 RMK AO2
KDED 200335Z AUTO 19004KT 10SM CLR 27/24 A2999 RMK AO2 LTG DSNT N
KDED 200315Z AUTO 21004KT 10SM CLR 27/24 A2999 RMK AO2
KDED 200255Z AUTO 20004KT 10SM CLR 27/24 A2999 RMK AO2
KDED 200235Z AUTO 20004KT 10SM CLR 27/24 A2999 RMK AO2 LTG DSNT E
KDED 200215Z AUTO 18004KT 10SM CLR 27/24 A2998 RMK AO2 LTG DSNT E
KDED 200155Z AUTO 19003KT 10SM CLR 28/24 A2998 RMK AO2
KDED 200135Z AUTO 20004KT 10SM CLR 28/23 A2998 RMK AO2
KDED 200115Z AUTO 00000KT 10SM CLR 28/23 A2997 RMK AO2
KDED 200055Z AUTO 23004KT 10SM CLR 28/23 A2996 RMK AO2
KDED 200035Z AUTO 22005KT 10SM CLR 28/23 A2996 RMK AO2
KDED 200015Z AUTO 23005KT 10SM SCT035 28/23 A2995 RMK AO2
KDED 192355Z AUTO 23004KT 10SM SCT035 28/23 A2995 RMK AO2
KDED 192335Z AUTO 25005KT 10SM SCT035 29/23 A2994 RMK AO2
KDED 192315Z AUTO 22005KT 10SM CLR 29/23 A2994 RMK AO2
KDED 192255Z AUTO 23006KT 10SM CLR 29/24 A2994 RMK AO2
KDED 192235Z AUTO 26005KT 10SM CLR 29/24 A2994 RMK AO2
KDED 192215Z AUTO 25005KT 10SM CLR 29/23 A2994 RMK AO2
KDED 192155Z AUTO 21007KT 10SM CLR 30/23 A2994 RMK AO2
KDED 192135Z AUTO 23007KT 10SM SCT028 30/24 A2994 RMK AO2
KDED 192115Z AUTO 26010KT 10SM SCT028 SCT032 30/24 A2994 RMK AO2 LTG DSNT NE
KDED 192055Z AUTO 22008KT 10SM SCT031 SCT039 31/23 A2994 RMK AO2 LTG DSNT NE AND S
KDED 192035Z AUTO 23009KT 10SM SCT033 BKN039 31/23 A2994 RMK AO2 LTG DSNT NE
KDED 192015Z AUTO 24008KT 10SM SCT031 SCT039 31/23 A2995 RMK AO2 LTG DSNT NE
KDED 191955Z AUTO 25010G15KT 10SM VCTS SCT033 SCT044 32/23 A2995 RMK AO2 LTG DSNT NE AND E
KDED 191935Z AUTO 23007KT 10SM VCTS SCT033 SCT044 31/23 A2996 RMK AO2 LTG DSNT NE THRU SE
KDED 191915Z AUTO 22010KT 10SM TS SCT033 31/23 A2996 RMK AO2 LTG DSNT ALQDS
KDED 191855Z AUTO 24008KT 10SM CLR 30/23 A2996 RMK AO2 LTG DSNT NE THRU S
KDED 191835Z AUTO 25007KT 210V270 10SM VCTS CLR 30/23 A2996 RMK AO2 LTG DSNT NE AND S
KDED 191815Z AUTO 25010G16KT 10SM SCT035 SCT041 SCT120 30/21 A2996 RMK AO2 LTG DSNT SE AND S
KDED 191755Z AUTO 23009G17KT 10SM BKN038 BKN050 BKN075 31/23 A2997 RMK AO2
KDED 191735Z AUTO 23010KT 10SM SCT040 SCT048 BKN065 33/23 A2996 RMK AO2 LTG DSNT S
KDED 191715Z AUTO 24007KT 10SM SCT036 BKN050 BKN070 31/24 A2997 RMK AO2 LTG DSNT SW THRU NW
KDED 191655Z AUTO 25009KT 10SM BKN035 BKN047 OVC100 32/24 A2998 RMK AO2 LTG DSNT NW
KDED 191635Z AUTO 20008G16KT 10SM BKN035 BKN045 BKN120 32/23 A2998 RMK AO2
KDED 191615Z AUTO 23009KT 10SM SCT037 SCT048 BKN120 32/23 A2999 RMK AO2
KDED 191555Z AUTO 19011KT 10SM SCT035 SCT042 SCT065 32/23 A2999 RMK AO2 LTG DSNT NW
KDED 191535Z AUTO 20011KT 10SM SCT035 32/22 A2999 RMK AO2 LTG DSNT N
KDED 191515Z AUTO 20011KT 10SM SCT028 SCT035 31/23 A2999 RMK AO2 LTG DSNT W
KDED 191455Z AUTO 23009KT 200V260 10SM BKN026 BKN035 31/23 A2999 RMK AO2 LTG DSNT W
KDED 191435Z AUTO 21008KT 10SM SCT026 30/24 A3000 RMK AO2 LTG DSNT NE
KDED 191415Z AUTO 22010KT 10SM SCT024 30/24 A3000 RMK AO2 LTG DSNT W
KDED 191355Z AUTO 19011KT 10SM SCT020 30/24 A2999 RMK AO2
KDED 191335Z AUTO 20009KT 10SM SCT020 29/24 A2999 RMK AO2 LTG DSNT W
KDED 191315Z AUTO 19008KT 10SM CLR 29/24 A2999 RMK AO2
KDED 191255Z AUTO 19009KT 10SM CLR 28/24 A2999 RMK AO2
KDED 191235Z AUTO 19008KT 10SM CLR 28/24 A2998 RMK AO2
KDED 191215Z AUTO 19007KT 10SM CLR 27/24 A2998 RMK AO2 LTG DSNT W
KDED 191155Z AUTO 19006KT 10SM CLR 26/24 A2998 RMK AO2
KDED 191135Z AUTO 19005KT 10SM CLR 26/24 A2998 RMK AO2
KDED 191115Z AUTO 20003KT 10SM CLR 25/24 A2997 RMK AO2
KDED 191055Z AUTO 17006KT 10SM CLR 25/24 A2997 RMK AO2
KDED 191035Z AUTO 19006KT 10SM CLR 25/24 A2996 RMK AO2
KDED 191015Z AUTO 19004KT 10SM CLR 25/24 A2996 RMK AO2 LTG DSNT E
KDED 190955Z AUTO 19005KT 10SM CLR 25/24 A2996 RMK AO2
KDED 190935Z AUTO 19006KT 10SM CLR 25/24 A2996 RMK AO2
KDED 190915Z AUTO 20004KT 10SM CLR 25/24 A2996 RMK AO2
KDED 190855Z AUTO 18006KT 10SM CLR 25/24 A2995 RMK AO2
KDED 190835Z AUTO 18006KT 10SM CLR 25/24 A2995 RMK AO2